Time;durP1;ratioP1;P1;durP2;ratioP2;P2;SDS_P1;SDS_P2;PMS_P1;PMS_P2;Temp;Humidity;BMP_temperature;BMP_pressure;BME280_temperature;BME280_humidity;BME280_pressure;Samples;Min_cycle;Max_cycle;Signal;HPM_P1;HPM_P2
2022/09/18 00:02:28;;;;;;;1.33;1.20;;;;;;;;;;613407;231;26598;-66
2022/09/18 00:04:57;;;;;;;1.45;0.95;;;;;;;;;;613031;234;26610;-66
2022/09/18 00:07:25;;;;;;;1.60;1.10;;;;;;;;;;613757;231;26889;-66
2022/09/18 00:09:54;;;;;;;1.12;1.02;;;;;;;;;;613244;232;26552;-67
2022/09/18 00:12:23;;;;;;;1.27;1.12;;;;;;;;;;612754;234;26830;-66
2022/09/18 00:14:52;;;;;;;1.27;1.10;;;;;;;;;;617777;230;26565;-66
2022/09/18 00:17:21;;;;;;;1.75;1.02;;;;;;;;;;616620;231;26559;-66
2022/09/18 00:19:50;;;;;;;1.70;1.20;;;;;;;;;;621381;231;26554;-66
2022/09/18 00:22:19;;;;;;;1.02;0.90;;;;;;;;;;618634;231;26560;-66
2022/09/18 00:24:47;;;;;;;1.15;1.05;;;;;;;;;;612849;234;26576;-66
2022/09/18 00:27:16;;;;;;;1.75;1.40;;;;;;;;;;617949;231;26564;-66
2022/09/18 00:29:45;;;;;;;1.08;0.95;;;;;;;;;;620584;231;26853;-66
2022/09/18 00:32:14;;;;;;;1.20;1.10;;;;;;;;;;615404;231;26584;-66
2022/09/18 00:34:43;;;;;;;1.12;1.00;;;;;;;;;;615690;234;26805;-66
2022/09/18 00:37:12;;;;;;;0.98;0.98;;;;;;;;;;615678;234;26576;-66
2022/09/18 00:39:40;;;;;;;2.42;1.10;;;;;;;;;;615633;234;26565;-66
2022/09/18 00:42:11;;;;;;;1.15;0.90;;;;;;;;;;620025;231;26607;-66
2022/09/18 00:44:41;;;;;;;1.75;1.00;;;;;;;;;;621082;231;26640;-66
2022/09/18 00:47:25;;;;;;;0.90;0.90;;;;;;;;;;620789;231;26629;-65
2022/09/18 00:49:54;;;;;;;1.15;1.00;;;;;;;;;;617983;231;26587;-65
2022/09/18 00:52:24;;;;;;;1.48;1.20;;;;;;;;;;612711;231;26663;-65
2022/09/18 00:54:52;;;;;;;1.60;0.90;;;;;;;;;;612316;235;26641;-66
2022/09/18 00:57:22;;;;;;;1.75;0.90;;;;;;;;;;612334;235;26564;-66
2022/09/18 00:59:50;;;;;;;1.23;1.05;;;;;;;;;;612335;235;26636;-65
2022/09/18 01:02:19;;;;;;;1.48;1.10;;;;;;;;;;616277;228;26637;-66
2022/09/18 01:04:49;;;;;;;1.40;1.27;;;;;;;;;;613718;233;26853;-66
2022/09/18 01:07:28;;;;;;;1.23;1.10;;;;;;;;;;613390;228;26578;-65
2022/09/18 01:10:11;;;;;;;1.50;1.23;;;;;;;;;;619118;231;27333;-65
2022/09/18 01:12:45;;;;;;;1.30;1.20;;;;;;;;;;620535;231;26651;-65
2022/09/18 01:15:14;;;;;;;1.00;1.00;;;;;;;;;;621247;231;26610;-65
2022/09/18 01:17:44;;;;;;;1.17;1.12;;;;;;;;;;616292;231;26811;-65
2022/09/18 01:20:16;;;;;;;1.48;1.08;;;;;;;;;;612743;231;26562;-66
2022/09/18 01:22:46;;;;;;;1.65;1.00;;;;;;;;;;612529;234;26591;-65
2022/09/18 01:25:17;;;;;;;1.02;1.02;;;;;;;;;;612649;230;26586;-65
2022/09/18 01:27:48;;;;;;;1.10;1.00;;;;;;;;;;613997;231;27225;-65
2022/09/18 01:30:17;;;;;;;1.58;0.95;;;;;;;;;;615636;233;26846;-65
2022/09/18 01:32:47;;;;;;;0.90;0.90;;;;;;;;;;615469;230;26638;-66
2022/09/18 01:35:15;;;;;;;0.80;0.80;;;;;;;;;;612597;234;26832;-65
2022/09/18 01:37:46;;;;;;;0.85;0.85;;;;;;;;;;612697;231;26563;-65
2022/09/18 01:40:18;;;;;;;1.35;1.08;;;;;;;;;;612239;235;26536;-66
2022/09/18 01:42:46;;;;;;;2.15;0.90;;;;;;;;;;612322;235;26644;-66
2022/09/18 01:45:15;;;;;;;0.80;0.80;;;;;;;;;;612324;229;26904;-65
2022/09/18 01:47:44;;;;;;;0.82;0.82;;;;;;;;;;616643;231;26574;-65
2022/09/18 01:50:13;;;;;;;0.93;0.80;;;;;;;;;;615351;231;26586;-65
2022/09/18 01:52:42;;;;;;;0.80;0.80;;;;;;;;;;612352;235;26602;-64
2022/09/18 01:55:11;;;;;;;0.77;0.70;;;;;;;;;;616318;231;26632;-64
2022/09/18 01:57:46;;;;;;;1.37;0.70;;;;;;;;;;623113;231;26574;-64
2022/09/18 02:00:15;;;;;;;0.80;0.80;;;;;;;;;;622177;231;26612;-65
2022/09/18 02:02:50;;;;;;;0.60;0.60;;;;;;;;;;622508;231;26618;-65
2022/09/18 02:05:18;;;;;;;0.50;0.50;;;;;;;;;;623537;231;26585;-65
2022/09/18 02:07:47;;;;;;;0.60;0.60;;;;;;;;;;615564;231;26563;-65
2022/09/18 02:10:15;;;;;;;0.85;0.80;;;;;;;;;;616666;231;26555;-64
2022/09/18 02:12:44;;;;;;;0.75;0.75;;;;;;;;;;621371;229;26671;-65
2022/09/18 02:15:13;;;;;;;1.87;0.90;;;;;;;;;;620306;227;26570;-65
2022/09/18 02:17:49;;;;;;;0.88;0.80;;;;;;;;;;613540;233;26839;-65
2022/09/18 02:20:19;;;;;;;0.70;0.70;;;;;;;;;;615725;231;26764;-65
2022/09/18 02:22:47;;;;;;;0.73;0.73;;;;;;;;;;621757;231;26597;-65
2022/09/18 02:25:16;;;;;;;0.75;0.75;;;;;;;;;;621728;231;26587;-65
2022/09/18 02:27:45;;;;;;;0.62;0.62;;;;;;;;;;621521;231;27161;-65
2022/09/18 02:30:14;;;;;;;1.27;0.68;;;;;;;;;;619478;231;26622;-66
2022/09/18 02:32:43;;;;;;;0.82;0.82;;;;;;;;;;618217;230;26843;-65
2022/09/18 02:35:12;;;;;;;0.70;0.70;;;;;;;;;;624037;230;26579;-65
2022/09/18 02:37:43;;;;;;;0.60;0.60;;;;;;;;;;624026;230;26620;-65
2022/09/18 02:40:14;;;;;;;1.80;0.70;;;;;;;;;;623339;230;26621;-65
2022/09/18 02:42:43;;;;;;;0.60;0.60;;;;;;;;;;621716;230;26834;-65
2022/09/18 02:45:14;;;;;;;0.52;0.52;;;;;;;;;;615785;233;26584;-64
2022/09/18 02:47:56;;;;;;;0.75;0.75;;;;;;;;;;615795;233;26563;-65
2022/09/18 02:50:25;;;;;;;0.75;0.75;;;;;;;;;;615990;232;26529;-65
2022/09/18 02:52:59;;;;;;;0.80;0.80;;;;;;;;;;615498;234;26549;-65
2022/09/18 02:55:29;;;;;;;3.22;0.70;;;;;;;;;;616006;233;26775;-65
2022/09/18 02:57:58;;;;;;;1.67;0.77;;;;;;;;;;615656;234;26548;-66
2022/09/18 03:00:27;;;;;;;0.73;0.73;;;;;;;;;;614709;234;26546;-65
2022/09/18 03:02:56;;;;;;;0.98;0.90;;;;;;;;;;612833;234;26610;-65
2022/09/18 03:05:24;;;;;;;1.23;1.10;;;;;;;;;;612847;234;26613;-65
2022/09/18 03:07:53;;;;;;;1.12;1.00;;;;;;;;;;612848;234;26614;-64
2022/09/18 03:10:22;;;;;;;1.27;0.80;;;;;;;;;;614065;231;26582;-65
2022/09/18 03:12:51;;;;;;;1.00;0.88;;;;;;;;;;615690;234;27240;-65
2022/09/18 03:15:21;;;;;;;1.12;0.93;;;;;;;;;;615647;234;26565;-65
2022/09/18 03:17:48;;;;;;;1.35;1.00;;;;;;;;;;615628;234;26764;-65
2022/09/18 03:20:18;;;;;;;3.28;1.05;;;;;;;;;;615581;231;26582;-65
2022/09/18 03:22:47;;;;;;;2.42;0.90;;;;;;;;;;612435;234;26608;-64
2022/09/18 03:25:16;;;;;;;1.37;0.80;;;;;;;;;;613467;232;26614;-65
2022/09/18 03:27:44;;;;;;;2.28;0.93;;;;;;;;;;613702;234;26592;-64
2022/09/18 03:30:16;;;;;;;2.12;1.10;;;;;;;;;;614246;231;26539;-64
2022/09/18 03:32:46;;;;;;;3.08;1.00;;;;;;;;;;616533;232;26608;-65
2022/09/18 03:35:14;;;;;;;1.10;0.90;;;;;;;;;;616149;233;26560;-65
2022/09/18 03:37:43;;;;;;;3.08;1.27;;;;;;;;;;616226;233;26564;-64
2022/09/18 03:40:12;;;;;;;1.52;0.98;;;;;;;;;;616507;230;26567;-65
2022/09/18 03:42:43;;;;;;;0.80;0.80;;;;;;;;;;615748;231;26575;-64
2022/09/18 03:45:11;;;;;;;3.92;1.15;;;;;;;;;;612662;234;26598;-64
2022/09/18 03:47:40;;;;;;;2.83;1.10;;;;;;;;;;612845;233;27265;-64
2022/09/18 03:50:10;;;;;;;3.08;1.30;;;;;;;;;;613627;233;26572;-64
2022/09/18 03:52:38;;;;;;;2.58;1.20;;;;;;;;;;616276;232;26615;-64
2022/09/18 03:55:07;;;;;;;2.65;1.30;;;;;;;;;;615455;231;26531;-63
2022/09/18 03:57:36;;;;;;;2.62;1.20;;;;;;;;;;613147;234;26529;-64
2022/09/18 04:00:05;;;;;;;3.17;1.30;;;;;;;;;;613190;233;26775;-64
2022/09/18 04:02:33;;;;;;;3.17;1.30;;;;;;;;;;612887;235;26564;-64
2022/09/18 04:05:03;;;;;;;2.40;1.40;;;;;;;;;;612846;235;26582;-64
2022/09/18 04:07:31;;;;;;;3.10;1.37;;;;;;;;;;612663;235;26593;-64
2022/09/18 04:10:00;;;;;;;3.35;1.45;;;;;;;;;;612637;231;26831;-64
2022/09/18 04:12:29;;;;;;;5.87;1.50;;;;;;;;;;612494;235;26625;-63
2022/09/18 04:14:58;;;;;;;3.85;1.60;;;;;;;;;;612491;231;26971;-63
2022/09/18 04:17:27;;;;;;;3.22;1.50;;;;;;;;;;612477;235;26572;-65
2022/09/18 04:19:55;;;;;;;3.75;1.80;;;;;;;;;;612488;234;26580;-65
2022/09/18 04:22:24;;;;;;;5.37;1.33;;;;;;;;;;612413;235;26628;-65
2022/09/18 04:24:54;;;;;;;4.60;1.37;;;;;;;;;;612517;235;26563;-66
2022/09/18 04:27:22;;;;;;;3.15;1.48;;;;;;;;;;612462;235;26594;-65
2022/09/18 04:29:51;;;;;;;2.85;1.60;;;;;;;;;;613740;231;26572;-65
2022/09/18 04:32:20;;;;;;;2.70;1.52;;;;;;;;;;623720;231;26573;-65
2022/09/18 04:34:49;;;;;;;5.22;1.90;;;;;;;;;;623639;231;26537;-65
2022/09/18 04:37:18;;;;;;;3.83;1.40;;;;;;;;;;625037;228;26831;-65
2022/09/18 04:39:47;;;;;;;4.82;1.52;;;;;;;;;;616540;230;26550;-65
2022/09/18 04:42:15;;;;;;;3.60;1.40;;;;;;;;;;613347;233;27256;-65
2022/09/18 04:44:44;;;;;;;2.47;2.00;;;;;;;;;;613302;234;26592;-65
2022/09/18 04:47:13;;;;;;;4.03;1.40;;;;;;;;;;613068;234;26590;-65
2022/09/18 04:49:42;;;;;;;4.43;1.52;;;;;;;;;;615328;231;26558;-64
2022/09/18 04:52:11;;;;;;;3.80;1.73;;;;;;;;;;616199;233;26604;-64
2022/09/18 04:54:40;;;;;;;3.80;1.80;;;;;;;;;;616024;233;26951;-65
2022/09/18 04:57:10;;;;;;;4.40;1.60;;;;;;;;;;615934;233;26607;-64
2022/09/18 04:59:38;;;;;;;4.28;1.58;;;;;;;;;;613858;231;26567;-65
2022/09/18 05:02:08;;;;;;;2.40;1.45;;;;;;;;;;612701;233;26588;-65
2022/09/18 05:04:37;;;;;;;3.47;1.50;;;;;;;;;;612751;234;26576;-65
2022/09/18 05:07:06;;;;;;;2.45;1.45;;;;;;;;;;612729;234;26834;-65
2022/09/18 05:09:35;;;;;;;2.75;1.55;;;;;;;;;;612937;231;26572;-64
2022/09/18 05:12:04;;;;;;;4.47;1.73;;;;;;;;;;612655;233;26617;-64
2022/09/18 05:14:33;;;;;;;3.17;1.42;;;;;;;;;;612555;234;26586;-64
2022/09/18 05:17:01;;;;;;;2.83;1.50;;;;;;;;;;615653;234;27275;-65
2022/09/18 05:19:30;;;;;;;3.70;1.60;;;;;;;;;;615621;234;26557;-64
2022/09/18 05:21:59;;;;;;;3.45;1.55;;;;;;;;;;615633;234;26871;-65
2022/09/18 05:24:28;;;;;;;4.97;1.52;;;;;;;;;;615639;234;26595;-65
2022/09/18 05:26:57;;;;;;;4.47;1.62;;;;;;;;;;615601;234;26578;-64
2022/09/18 05:29:26;;;;;;;3.03;1.60;;;;;;;;;;615522;234;26891;-64
2022/09/18 05:31:55;;;;;;;4.10;1.83;;;;;;;;;;615591;234;26570;-65
2022/09/18 05:34:24;;;;;;;4.40;1.62;;;;;;;;;;615643;234;26576;-65
2022/09/18 05:36:53;;;;;;;3.58;1.58;;;;;;;;;;615626;234;26799;-65
2022/09/18 05:39:22;;;;;;;3.97;1.55;;;;;;;;;;612864;231;26590;-65
2022/09/18 05:41:51;;;;;;;3.22;1.60;;;;;;;;;;612428;235;26637;-65
2022/09/18 05:44:20;;;;;;;3.87;1.73;;;;;;;;;;612432;235;26626;-66
2022/09/18 05:46:49;;;;;;;3.62;1.80;;;;;;;;;;618636;231;26622;-65
2022/09/18 05:49:18;;;;;;;3.17;1.62;;;;;;;;;;625344;228;26851;-65
2022/09/18 05:51:46;;;;;;;4.57;1.90;;;;;;;;;;618625;230;26582;-65
2022/09/18 05:54:15;;;;;;;5.57;1.80;;;;;;;;;;616437;233;26820;-65
2022/09/18 05:56:44;;;;;;;3.05;1.50;;;;;;;;;;615507;233;26571;-65
2022/09/18 05:59:13;;;;;;;5.30;1.98;;;;;;;;;;613027;234;26615;-65
2022/09/18 06:01:43;;;;;;;2.53;1.30;;;;;;;;;;613014;233;26645;-65
2022/09/18 06:04:12;;;;;;;5.78;1.90;;;;;;;;;;613509;230;26982;-65
2022/09/18 06:06:42;;;;;;;6.80;1.92;;;;;;;;;;613733;233;26588;-65
2022/09/18 06:09:10;;;;;;;3.35;1.90;;;;;;;;;;615871;233;26613;-64
2022/09/18 06:11:39;;;;;;;4.70;1.80;;;;;;;;;;615938;233;26578;-65
2022/09/18 06:14:08;;;;;;;4.30;1.80;;;;;;;;;;615872;233;26620;-65
2022/09/18 06:16:37;;;;;;;4.50;2.15;;;;;;;;;;615871;233;26881;-64
2022/09/18 06:19:06;;;;;;;4.18;1.67;;;;;;;;;;613394;233;26563;-63
2022/09/18 06:21:35;;;;;;;6.00;2.10;;;;;;;;;;615881;233;26619;-64
2022/09/18 06:24:04;;;;;;;5.28;1.80;;;;;;;;;;615769;233;26596;-65
2022/09/18 06:26:33;;;;;;;4.32;1.77;;;;;;;;;;615660;234;26560;-65
2022/09/18 06:29:01;;;;;;;6.78;1.87;;;;;;;;;;615565;234;26814;-64
2022/09/18 06:31:31;;;;;;;3.10;1.83;;;;;;;;;;612476;234;26618;-64
2022/09/18 06:33:59;;;;;;;4.75;2.05;;;;;;;;;;612447;235;26816;-65
2022/09/18 06:36:28;;;;;;;2.92;1.30;;;;;;;;;;612739;231;26635;-64
2022/09/18 06:38:57;;;;;;;6.32;2.00;;;;;;;;;;612482;235;26560;-64
2022/09/18 06:41:26;;;;;;;3.60;1.65;;;;;;;;;;612467;234;26613;-64
2022/09/18 06:43:54;;;;;;;4.50;1.73;;;;;;;;;;614316;231;26588;-65
2022/09/18 06:46:23;;;;;;;6.87;2.08;;;;;;;;;;615632;234;26529;-65
2022/09/18 06:48:52;;;;;;;5.93;1.60;;;;;;;;;;615540;234;26599;-65
2022/09/18 06:51:23;;;;;;;3.30;1.40;;;;;;;;;;617028;231;26855;-65
2022/09/18 06:53:51;;;;;;;4.82;1.75;;;;;;;;;;621047;228;26857;-64
2022/09/18 06:56:20;;;;;;;4.22;1.92;;;;;;;;;;621111;231;26621;-64
2022/09/18 06:58:49;;;;;;;5.20;1.75;;;;;;;;;;621131;229;26844;-64
2022/09/18 07:01:18;;;;;;;5.12;2.05;;;;;;;;;;622677;230;26570;-64
2022/09/18 07:03:47;;;;;;;4.20;1.80;;;;;;;;;;622266;231;26589;-64
2022/09/18 07:06:16;;;;;;;5.22;1.67;;;;;;;;;;621210;230;26574;-64
2022/09/18 07:08:44;;;;;;;2.83;1.50;;;;;;;;;;620066;228;26552;-64
2022/09/18 07:11:13;;;;;;;5.00;1.55;;;;;;;;;;621716;230;26621;-64
2022/09/18 07:13:42;;;;;;;3.40;1.35;;;;;;;;;;616731;230;26637;-64
2022/09/18 07:16:12;;;;;;;4.25;2.00;;;;;;;;;;613084;233;27063;-64
2022/09/18 07:18:40;;;;;;;7.45;2.00;;;;;;;;;;615923;231;26562;-64
2022/09/18 07:21:09;;;;;;;4.35;1.75;;;;;;;;;;621341;231;26808;-63
2022/09/18 07:23:38;;;;;;;2.67;1.40;;;;;;;;;;621327;231;26602;-64
2022/09/18 07:26:07;;;;;;;5.05;1.48;;;;;;;;;;621228;231;26567;-63
2022/09/18 07:28:36;;;;;;;5.80;2.28;;;;;;;;;;621380;231;26789;-64
2022/09/18 07:31:04;;;;;;;5.07;1.90;;;;;;;;;;621399;231;26561;-64
2022/09/18 07:33:34;;;;;;;3.00;1.62;;;;;;;;;;621397;231;26921;-64
2022/09/18 07:36:02;;;;;;;3.90;1.67;;;;;;;;;;614977;231;26563;-66
2022/09/18 07:38:33;;;;;;;69.37;14.48;;;;;;;;;;615537;234;26596;-70
2022/09/18 07:41:00;;;;;;;449.27;53.50;;;;;;;;;;614925;231;26584;-71
2022/09/18 07:43:29;;;;;;;1999.90;518.63;;;;;;;;;;612428;228;26637;-71
2022/09/18 07:45:58;;;;;;;1999.90;533.33;;;;;;;;;;612381;235;26925;-71
2022/09/18 07:48:26;;;;;;;93.95;24.42;;;;;;;;;;612501;235;26559;-67
2022/09/18 07:50:55;;;;;;;94.75;24.33;;;;;;;;;;616886;231;26602;-68
2022/09/18 07:53:24;;;;;;;77.80;21.77;;;;;;;;;;617078;231;26863;-68
2022/09/18 07:55:54;;;;;;;59.92;18.10;;;;;;;;;;618873;231;26837;-69
2022/09/18 07:58:22;;;;;;;48.40;15.07;;;;;;;;;;617462;231;26557;-68
2022/09/18 08:00:51;;;;;;;33.65;12.23;;;;;;;;;;614122;231;26568;-69
2022/09/18 08:03:20;;;;;;;31.42;11.18;;;;;;;;;;613622;230;26642;-67
2022/09/18 08:05:49;;;;;;;34.30;10.13;;;;;;;;;;621558;230;26552;-68
2022/09/18 08:08:17;;;;;;;41.60;11.23;;;;;;;;;;612469;235;26797;-68
2022/09/18 08:10:46;;;;;;;30.23;9.65;;;;;;;;;;618952;231;26626;-68
2022/09/18 08:13:15;;;;;;;20.70;6.30;;;;;;;;;;618035;230;26626;-68
2022/09/18 08:15:44;;;;;;;18.35;5.37;;;;;;;;;;615517;231;27158;-68
2022/09/18 08:18:13;;;;;;;18.48;7.37;;;;;;;;;;619496;231;26640;-67
2022/09/18 08:20:42;;;;;;;23.10;8.18;;;;;;;;;;615123;231;26773;-67
2022/09/18 08:23:11;;;;;;;20.98;6.32;;;;;;;;;;622591;230;26639;-67
2022/09/18 08:25:40;;;;;;;18.90;6.80;;;;;;;;;;620367;230;26614;-67
2022/09/18 08:28:09;;;;;;;17.92;5.90;;;;;;;;;;614134;233;26624;-67
2022/09/18 08:30:38;;;;;;;13.57;5.40;;;;;;;;;;614552;230;26566;-67
2022/09/18 08:33:07;;;;;;;10.27;4.28;;;;;;;;;;617522;230;26591;-67
2022/09/18 08:35:36;;;;;;;7.32;3.20;;;;;;;;;;620189;230;26788;-67
2022/09/18 08:38:05;;;;;;;11.30;3.00;;;;;;;;;;613130;231;26572;-66
2022/09/18 08:40:36;;;;;;;5.43;2.30;;;;;;;;;;614632;233;26573;-65
2022/09/18 08:43:06;;;;;;;12.13;2.47;;;;;;;;;;612350;233;26587;-65
2022/09/18 08:45:36;;;;;;;5.93;1.90;;;;;;;;;;614988;231;26609;-65
2022/09/18 08:48:05;;;;;;;6.12;2.25;;;;;;;;;;614852;231;26577;-65
2022/09/18 08:50:34;;;;;;;8.13;2.30;;;;;;;;;;616770;231;26857;-65
2022/09/18 08:53:04;;;;;;;5.78;2.08;;;;;;;;;;614128;231;26645;-65
2022/09/18 08:55:33;;;;;;;7.43;2.17;;;;;;;;;;612997;231;26607;-65
2022/09/18 08:58:02;;;;;;;5.85;1.85;;;;;;;;;;617176;231;26566;-65
2022/09/18 09:00:31;;;;;;;6.35;1.70;;;;;;;;;;615046;231;26581;-65
2022/09/18 09:03:00;;;;;;;4.97;1.95;;;;;;;;;;615674;231;26816;-64
2022/09/18 09:05:29;;;;;;;7.43;2.15;;;;;;;;;;620632;231;26618;-65
2022/09/18 09:08:01;;;;;;;5.47;1.80;;;;;;;;;;612640;234;26585;-65
2022/09/18 09:10:30;;;;;;;6.30;2.28;;;;;;;;;;613767;234;26572;-64
2022/09/18 09:13:05;;;;;;;5.68;2.20;;;;;;;;;;612978;233;26800;-65
2022/09/18 09:15:34;;;;;;;5.30;2.00;;;;;;;;;;617597;231;26798;-64
2022/09/18 09:18:05;;;;;;;4.78;2.22;;;;;;;;;;615027;231;26579;-64
2022/09/18 09:20:35;;;;;;;7.55;1.92;;;;;;;;;;616673;231;26592;-64
2022/09/18 09:23:04;;;;;;;4.43;1.73;;;;;;;;;;619483;229;26661;-64
2022/09/18 09:25:35;;;;;;;6.75;1.77;;;;;;;;;;614534;231;26840;-65
2022/09/18 09:28:04;;;;;;;4.55;1.70;;;;;;;;;;616937;230;26533;-64
2022/09/18 09:30:33;;;;;;;6.68;2.00;;;;;;;;;;614380;230;27276;-64
2022/09/18 09:33:02;;;;;;;3.05;1.40;;;;;;;;;;619359;231;26634;-64
2022/09/18 09:35:31;;;;;;;5.57;1.62;;;;;;;;;;613248;231;26918;-64
2022/09/18 09:38:00;;;;;;;4.93;1.60;;;;;;;;;;618862;231;26625;-64
2022/09/18 09:40:31;;;;;;;4.68;1.62;;;;;;;;;;612880;233;26627;-65
2022/09/18 09:42:58;;;;;;;5.47;1.60;;;;;;;;;;618386;231;26594;-65
2022/09/18 09:45:28;;;;;;;6.93;1.77;;;;;;;;;;615081;233;26621;-65
2022/09/18 09:48:07;;;;;;;3.35;1.37;;;;;;;;;;613238;233;26822;-65
2022/09/18 09:50:39;;;;;;;6.82;1.60;;;;;;;;;;614683;230;26564;-64
2022/09/18 09:53:09;;;;;;;5.15;1.80;;;;;;;;;;618809;231;26601;-65
2022/09/18 09:55:43;;;;;;;2.00;1.33;;;;;;;;;;619165;230;27212;-65
2022/09/18 09:58:15;;;;;;;4.07;1.52;;;;;;;;;;618398;230;26536;-65
2022/09/18 10:00:43;;;;;;;3.90;1.55;;;;;;;;;;614830;231;26557;-65
2022/09/18 10:03:18;;;;;;;5.40;1.60;;;;;;;;;;616835;231;26958;-65
2022/09/18 10:06:02;;;;;;;4.55;1.65;;;;;;;;;;620490;230;26627;-67
2022/09/18 10:08:33;;;;;;;6.43;1.60;;;;;;;;;;616684;231;26592;-67
2022/09/18 10:11:03;;;;;;;4.93;1.60;;;;;;;;;;613642;234;26590;-67
2022/09/18 10:13:33;;;;;;;4.53;1.35;;;;;;;;;;614998;234;26569;-66
2022/09/18 10:16:03;;;;;;;3.70;1.40;;;;;;;;;;616220;231;26586;-66
2022/09/18 10:18:32;;;;;;;3.33;1.42;;;;;;;;;;622333;231;26610;-67
2022/09/18 10:21:01;;;;;;;4.95;1.80;;;;;;;;;;613411;234;26588;-67
2022/09/18 10:23:33;;;;;;;7.15;1.62;;;;;;;;;;618026;231;26606;-67
2022/09/18 10:26:02;;;;;;;8.70;1.50;;;;;;;;;;617870;230;26870;-67
2022/09/18 10:28:31;;;;;;;3.85;1.40;;;;;;;;;;616963;231;26579;-65
2022/09/18 10:31:00;;;;;;;4.12;1.70;;;;;;;;;;621092;231;26847;-67
2022/09/18 10:33:30;;;;;;;5.50;1.55;;;;;;;;;;613994;231;26611;-68
2022/09/18 10:35:59;;;;;;;9.77;1.87;;;;;;;;;;618808;230;26625;-67
2022/09/18 10:38:31;;;;;;;48.10;10.55;;;;;;;;;;614264;230;26561;-68
2022/09/18 10:41:05;;;;;;;110.53;19.70;;;;;;;;;;614102;230;26591;-68
2022/09/18 10:43:34;;;;;;;124.07;22.02;;;;;;;;;;614926;231;26837;-70
2022/09/18 10:46:03;;;;;;;138.73;24.40;;;;;;;;;;617966;230;26619;-67
2022/09/18 10:48:32;;;;;;;128.80;22.27;;;;;;;;;;617555;231;26590;-67
2022/09/18 10:51:01;;;;;;;101.95;19.62;;;;;;;;;;619278;231;26585;-66
2022/09/18 10:53:31;;;;;;;94.57;18.27;;;;;;;;;;622712;230;26953;-65
2022/09/18 10:56:01;;;;;;;92.95;18.08;;;;;;;;;;616067;231;26552;-65
2022/09/18 10:58:30;;;;;;;85.38;16.62;;;;;;;;;;616881;231;26813;-64
2022/09/18 11:00:59;;;;;;;83.62;15.45;;;;;;;;;;615292;231;26567;-64
2022/09/18 11:03:31;;;;;;;82.70;15.02;;;;;;;;;;615916;231;26687;-65
2022/09/18 11:06:00;;;;;;;89.07;14.02;;;;;;;;;;622969;230;26792;-66
2022/09/18 11:08:30;;;;;;;63.67;12.85;;;;;;;;;;619157;230;26618;-66
2022/09/18 11:11:03;;;;;;;59.33;11.70;;;;;;;;;;616330;230;26599;-66
2022/09/18 11:13:32;;;;;;;48.67;9.32;;;;;;;;;;616095;231;26600;-66
2022/09/18 11:16:01;;;;;;;38.42;8.30;;;;;;;;;;613452;231;26612;-66
2022/09/18 11:18:29;;;;;;;31.70;8.30;;;;;;;;;;616223;231;26564;-66
2022/09/18 11:20:58;;;;;;;25.23;5.82;;;;;;;;;;613559;231;26577;-66
2022/09/18 11:23:27;;;;;;;14.43;3.80;;;;;;;;;;614894;231;26601;-66
2022/09/18 11:26:02;;;;;;;13.73;3.40;;;;;;;;;;616738;231;26647;-66
2022/09/18 11:28:31;;;;;;;15.00;3.83;;;;;;;;;;615028;230;27228;-65
2022/09/18 11:31:00;;;;;;;12.35;3.05;;;;;;;;;;616014;231;26559;-66
2022/09/18 11:33:30;;;;;;;10.95;2.30;;;;;;;;;;616105;231;27227;-67
2022/09/18 11:35:59;;;;;;;11.50;3.00;;;;;;;;;;615623;231;26551;-67
2022/09/18 11:38:28;;;;;;;8.30;2.95;;;;;;;;;;614125;230;26604;-66
2022/09/18 11:40:57;;;;;;;9.38;2.67;;;;;;;;;;614936;231;26581;-67
2022/09/18 11:43:25;;;;;;;10.45;2.60;;;;;;;;;;614034;231;26595;-67
2022/09/18 11:46:00;;;;;;;12.30;2.97;;;;;;;;;;616706;229;27113;-66
2022/09/18 11:48:28;;;;;;;10.48;2.70;;;;;;;;;;618075;230;26859;-65
2022/09/18 11:50:57;;;;;;;9.43;2.20;;;;;;;;;;614060;233;26582;-67
2022/09/18 11:53:26;;;;;;;10.25;2.97;;;;;;;;;;616479;230;26598;-67
2022/09/18 11:56:00;;;;;;;10.27;2.70;;;;;;;;;;615793;230;26591;-66
2022/09/18 11:58:32;;;;;;;5.93;2.53;;;;;;;;;;619735;230;26633;-66
2022/09/18 12:01:11;;;;;;;8.45;2.72;;;;;;;;;;616980;230;26762;-67
2022/09/18 12:03:41;;;;;;;6.35;2.62;;;;;;;;;;615815;231;26653;-67
2022/09/18 12:06:10;;;;;;;7.45;2.40;;;;;;;;;;614239;230;26572;-66
2022/09/18 12:08:47;;;;;;;4.78;2.22;;;;;;;;;;617868;231;26569;-66
2022/09/18 12:11:20;;;;;;;7.57;2.05;;;;;;;;;;616237;230;27073;-66
2022/09/18 12:14:04;;;;;;;4.97;2.40;;;;;;;;;;615609;230;26592;-66
2022/09/18 12:16:42;;;;;;;6.07;2.30;;;;;;;;;;616477;231;26528;-66
2022/09/18 12:19:16;;;;;;;5.37;2.17;;;;;;;;;;613539;231;26595;-66
2022/09/18 12:21:48;;;;;;;3.95;1.80;;;;;;;;;;621494;231;26743;-66
2022/09/18 12:24:17;;;;;;;5.18;2.00;;;;;;;;;;621518;231;26577;-66
2022/09/18 12:26:48;;;;;;;4.90;2.10;;;;;;;;;;614464;234;26815;-65
2022/09/18 12:29:22;;;;;;;6.93;1.95;;;;;;;;;;615329;234;26611;-66
2022/09/18 12:31:51;;;;;;;4.75;2.53;;;;;;;;;;615704;233;26766;-67
2022/09/18 12:34:32;;;;;;;6.05;1.98;;;;;;;;;;612809;234;26568;-66
2022/09/18 12:37:03;;;;;;;5.45;2.60;;;;;;;;;;612652;231;26642;-67
2022/09/18 12:39:34;;;;;;;5.28;2.22;;;;;;;;;;612640;231;26598;-66
2022/09/18 12:42:24;;;;;;;7.80;1.98;;;;;;;;;;615971;231;26629;-66
2022/09/18 12:44:54;;;;;;;5.03;2.12;;;;;;;;;;613275;234;26578;-66
2022/09/18 12:47:25;;;;;;;2.95;1.95;;;;;;;;;;613264;234;26583;-66
2022/09/18 12:50:00;;;;;;;7.57;3.15;;;;;;;;;;613643;231;26842;-66
2022/09/18 12:52:30;;;;;;;6.25;1.90;;;;;;;;;;615576;234;26615;-66
2022/09/18 12:54:58;;;;;;;3.42;1.52;;;;;;;;;;614890;234;26826;-66
2022/09/18 12:57:29;;;;;;;2.87;1.55;;;;;;;;;;616891;230;26570;-67
2022/09/18 12:59:58;;;;;;;3.70;1.65;;;;;;;;;;621571;229;26967;-66
2022/09/18 13:02:33;;;;;;;3.60;1.70;;;;;;;;;;617815;231;26619;-66
2022/09/18 13:05:02;;;;;;;2.78;1.58;;;;;;;;;;615063;233;26819;-66
2022/09/18 13:07:32;;;;;;;3.45;1.60;;;;;;;;;;613162;233;26587;-65
2022/09/18 13:10:01;;;;;;;6.93;2.30;;;;;;;;;;613184;233;26610;-66
2022/09/18 13:12:30;;;;;;;5.47;1.75;;;;;;;;;;619227;230;26835;-67
2022/09/18 13:14:59;;;;;;;5.65;1.90;;;;;;;;;;615598;230;26538;-66
2022/09/18 13:17:30;;;;;;;5.05;1.85;;;;;;;;;;615641;230;27023;-66
2022/09/18 13:19:58;;;;;;;2.87;1.40;;;;;;;;;;616626;228;26525;-65
2022/09/18 13:22:27;;;;;;;3.30;1.60;;;;;;;;;;618714;231;26558;-66
2022/09/18 13:24:56;;;;;;;3.10;1.58;;;;;;;;;;618801;231;26530;-66
2022/09/18 13:27:25;;;;;;;3.75;1.60;;;;;;;;;;613083;233;26532;-66
2022/09/18 13:29:55;;;;;;;1.52;1.42;;;;;;;;;;617367;231;26769;-67
2022/09/18 13:32:23;;;;;;;2.25;1.40;;;;;;;;;;621693;231;26553;-67
2022/09/18 13:34:52;;;;;;;3.60;1.50;;;;;;;;;;621431;226;26835;-66
2022/09/18 13:37:21;;;;;;;2.08;1.27;;;;;;;;;;621261;231;26600;-66
2022/09/18 13:39:58;;;;;;;1.95;1.30;;;;;;;;;;620579;231;26638;-67
2022/09/18 13:42:28;;;;;;;2.97;1.20;;;;;;;;;;615551;231;26569;-67
2022/09/18 13:44:57;;;;;;;3.12;1.40;;;;;;;;;;614726;231;26584;-66
2022/09/18 13:47:28;;;;;;;2.10;1.27;;;;;;;;;;620747;231;26865;-67
2022/09/18 13:49:55;;;;;;;1.23;1.20;;;;;;;;;;619273;231;26644;-67
2022/09/18 13:52:26;;;;;;;1.52;1.25;;;;;;;;;;618947;231;26770;-66
2022/09/18 13:55:00;;;;;;;1.45;1.20;;;;;;;;;;613621;231;26586;-67
2022/09/18 13:57:29;;;;;;;1.73;1.10;;;;;;;;;;614507;234;26583;-67
2022/09/18 14:00:01;;;;;;;1.65;1.10;;;;;;;;;;612267;234;26636;-67
2022/09/18 14:02:31;;;;;;;1.25;0.90;;;;;;;;;;614440;231;26596;-67
2022/09/18 14:05:15;;;;;;;1.10;0.80;;;;;;;;;;617861;231;27094;-67
2022/09/18 14:07:53;;;;;;;1.05;0.80;;;;;;;;;;614477;230;26636;-66
2022/09/18 14:10:31;;;;;;;1.42;0.77;;;;;;;;;;616511;231;26581;-67
2022/09/18 14:13:03;;;;;;;0.65;0.65;;;;;;;;;;616203;230;26662;-66
2022/09/18 14:15:31;;;;;;;0.95;0.80;;;;;;;;;;614131;231;26751;-66
2022/09/18 14:18:02;;;;;;;0.75;0.75;;;;;;;;;;618736;231;26565;-66
2022/09/18 14:20:31;;;;;;;0.80;0.80;;;;;;;;;;615305;233;26555;-66
2022/09/18 14:23:15;;;;;;;0.60;0.60;;;;;;;;;;615585;231;26793;-66
2022/09/18 14:25:44;;;;;;;0.68;0.62;;;;;;;;;;615167;231;26645;-66
2022/09/18 14:28:15;;;;;;;1.00;0.90;;;;;;;;;;615507;231;26598;-66
2022/09/18 14:30:42;;;;;;;0.85;0.80;;;;;;;;;;612810;233;26570;-64
2022/09/18 14:33:11;;;;;;;2.08;0.80;;;;;;;;;;621943;231;26811;-65
2022/09/18 14:35:50;;;;;;;7.97;1.45;;;;;;;;;;614608;230;26563;-65
2022/09/18 14:38:21;;;;;;;2.67;0.95;;;;;;;;;;615336;230;26538;-64
2022/09/18 14:40:51;;;;;;;2.37;1.00;;;;;;;;;;615400;230;26966;-65
2022/09/18 14:43:20;;;;;;;1.48;0.80;;;;;;;;;;613519;231;26560;-65
2022/09/18 14:45:49;;;;;;;1.90;1.00;;;;;;;;;;618382;231;26616;-65
2022/09/18 14:48:19;;;;;;;1.12;0.90;;;;;;;;;;613260;234;26564;-65
2022/09/18 14:50:54;;;;;;;2.08;1.00;;;;;;;;;;617032;231;26800;-65
2022/09/18 14:53:23;;;;;;;1.15;0.90;;;;;;;;;;616579;231;26650;-65
2022/09/18 14:55:52;;;;;;;1.00;0.90;;;;;;;;;;613742;234;26565;-64
2022/09/18 14:58:21;;;;;;;1.42;1.10;;;;;;;;;;614337;231;26573;-64